sensor_id;sensor_type;location;lat;lon;timestamp;P1;durP1;ratioP1;P2;durP2;ratioP2
60060;SDS011;45933;51.336;12.612;2022-11-23T00:03:44;13.10;;;6.37;;
60060;SDS011;45933;51.336;12.612;2022-11-23T00:06:11;9.90;;;6.13;;
60060;SDS011;45933;51.336;12.612;2022-11-23T00:08:36;11.23;;;6.40;;
60060;SDS011;45933;51.336;12.612;2022-11-23T00:11:02;11.30;;;6.30;;
60060;SDS011;45933;51.336;12.612;2022-11-23T00:13:28;9.87;;;6.20;;
60060;SDS011;45933;51.336;12.612;2022-11-23T00:15:53;14.63;;;7.13;;
60060;SDS011;45933;51.336;12.612;2022-11-23T00:18:18;11.63;;;7.10;;
60060;SDS011;45933;51.336;12.612;2022-11-23T00:20:44;11.60;;;6.13;;
60060;SDS011;45933;51.336;12.612;2022-11-23T00:23:09;13.03;;;6.60;;
60060;SDS011;45933;51.336;12.612;2022-11-23T00:25:34;12.93;;;6.30;;
60060;SDS011;45933;51.336;12.612;2022-11-23T00:28:00;12.90;;;6.03;;
60060;SDS011;45933;51.336;12.612;2022-11-23T00:30:25;9.20;;;6.07;;
60060;SDS011;45933;51.336;12.612;2022-11-23T00:32:51;12.20;;;6.10;;
60060;SDS011;45933;51.336;12.612;2022-11-23T00:35:16;10.17;;;5.90;;
60060;SDS011;45933;51.336;12.612;2022-11-23T00:37:41;11.60;;;5.97;;
60060;SDS011;45933;51.336;12.612;2022-11-23T00:40:07;10.77;;;6.10;;
60060;SDS011;45933;51.336;12.612;2022-11-23T00:42:33;11.63;;;6.13;;
60060;SDS011;45933;51.336;12.612;2022-11-23T00:44:58;9.67;;;5.50;;
60060;SDS011;45933;51.336;12.612;2022-11-23T00:47:23;9.47;;;5.33;;
60060;SDS011;45933;51.336;12.612;2022-11-23T00:49:49;8.77;;;6.03;;
60060;SDS011;45933;51.336;12.612;2022-11-23T00:52:14;10.87;;;6.40;;
60060;SDS011;45933;51.336;12.612;2022-11-23T00:54:39;10.83;;;6.50;;
60060;SDS011;45933;51.336;12.612;2022-11-23T00:57:04;9.67;;;5.73;;
60060;SDS011;45933;51.336;12.612;2022-11-23T00:59:30;10.27;;;6.20;;
60060;SDS011;45933;51.336;12.612;2022-11-23T01:01:55;10.43;;;6.13;;
60060;SDS011;45933;51.336;12.612;2022-11-23T01:04:20;12.27;;;6.37;;
60060;SDS011;45933;51.336;12.612;2022-11-23T01:06:46;10.70;;;6.13;;
60060;SDS011;45933;51.336;12.612;2022-11-23T01:09:12;8.90;;;5.73;;
60060;SDS011;45933;51.336;12.612;2022-11-23T01:11:41;10.57;;;6.17;;
60060;SDS011;45933;51.336;12.612;2022-11-23T01:14:06;16.37;;;6.27;;
60060;SDS011;45933;51.336;12.612;2022-11-23T01:16:32;11.90;;;5.93;;
60060;SDS011;45933;51.336;12.612;2022-11-23T01:19:03;13.00;;;5.90;;
60060;SDS011;45933;51.336;12.612;2022-11-23T01:21:31;10.40;;;6.20;;
60060;SDS011;45933;51.336;12.612;2022-11-23T01:23:58;10.03;;;5.80;;
60060;SDS011;45933;51.336;12.612;2022-11-23T01:26:24;11.27;;;5.70;;
60060;SDS011;45933;51.336;12.612;2022-11-23T01:28:50;11.57;;;5.37;;
60060;SDS011;45933;51.336;12.612;2022-11-23T01:31:16;9.77;;;5.93;;
60060;SDS011;45933;51.336;12.612;2022-11-23T01:33:43;10.70;;;5.47;;
60060;SDS011;45933;51.336;12.612;2022-11-23T01:36:13;11.43;;;5.33;;
60060;SDS011;45933;51.336;12.612;2022-11-23T01:38:40;8.80;;;5.53;;
60060;SDS011;45933;51.336;12.612;2022-11-23T01:41:07;8.73;;;5.10;;
60060;SDS011;45933;51.336;12.612;2022-11-23T01:43:33;10.20;;;5.20;;
60060;SDS011;45933;51.336;12.612;2022-11-23T01:45:59;8.33;;;5.43;;
60060;SDS011;45933;51.336;12.612;2022-11-23T01:48:27;8.10;;;5.10;;
60060;SDS011;45933;51.336;12.612;2022-11-23T01:50:57;10.70;;;5.77;;
60060;SDS011;45933;51.336;12.612;2022-11-23T01:53:27;12.00;;;5.73;;
60060;SDS011;45933;51.336;12.612;2022-11-23T01:55:54;7.50;;;4.70;;
60060;SDS011;45933;51.336;12.612;2022-11-23T01:58:26;9.33;;;5.37;;
60060;SDS011;45933;51.336;12.612;2022-11-23T02:00:53;9.83;;;5.77;;
60060;SDS011;45933;51.336;12.612;2022-11-23T02:03:19;8.17;;;5.20;;
60060;SDS011;45933;51.336;12.612;2022-11-23T02:05:46;8.90;;;5.53;;
60060;SDS011;45933;51.336;12.612;2022-11-23T02:08:16;10.00;;;5.20;;
60060;SDS011;45933;51.336;12.612;2022-11-23T02:10:44;10.70;;;5.27;;
60060;SDS011;45933;51.336;12.612;2022-11-23T02:13:10;9.20;;;5.00;;
60060;SDS011;45933;51.336;12.612;2022-11-23T02:15:37;8.93;;;5.63;;
60060;SDS011;45933;51.336;12.612;2022-11-23T02:18:03;8.50;;;5.53;;
60060;SDS011;45933;51.336;12.612;2022-11-23T02:20:34;11.03;;;5.60;;
60060;SDS011;45933;51.336;12.612;2022-11-23T02:25:32;8.80;;;4.73;;
60060;SDS011;45933;51.336;12.612;2022-11-23T02:28:04;9.33;;;5.33;;
60060;SDS011;45933;51.336;12.612;2022-11-23T02:30:31;11.23;;;5.53;;
60060;SDS011;45933;51.336;12.612;2022-11-23T02:32:58;9.87;;;5.23;;
60060;SDS011;45933;51.336;12.612;2022-11-23T02:35:24;9.37;;;4.87;;
60060;SDS011;45933;51.336;12.612;2022-11-23T02:37:49;8.60;;;4.80;;
60060;SDS011;45933;51.336;12.612;2022-11-23T02:40:24;7.43;;;4.87;;
60060;SDS011;45933;51.336;12.612;2022-11-23T02:42:53;9.67;;;4.73;;
60060;SDS011;45933;51.336;12.612;2022-11-23T02:45:33;7.90;;;5.10;;
60060;SDS011;45933;51.336;12.612;2022-11-23T02:48:01;10.70;;;5.33;;
60060;SDS011;45933;51.336;12.612;2022-11-23T02:50:27;10.20;;;5.30;;
60060;SDS011;45933;51.336;12.612;2022-11-23T02:52:52;9.27;;;5.10;;
60060;SDS011;45933;51.336;12.612;2022-11-23T02:55:18;8.50;;;4.97;;
60060;SDS011;45933;51.336;12.612;2022-11-23T02:57:43;6.57;;;4.30;;
60060;SDS011;45933;51.336;12.612;2022-11-23T03:00:09;9.77;;;4.73;;
60060;SDS011;45933;51.336;12.612;2022-11-23T03:02:35;11.40;;;5.87;;
60060;SDS011;45933;51.336;12.612;2022-11-23T03:05:00;11.47;;;5.20;;
60060;SDS011;45933;51.336;12.612;2022-11-23T03:07:25;9.60;;;5.43;;
60060;SDS011;45933;51.336;12.612;2022-11-23T03:09:51;9.67;;;5.20;;
60060;SDS011;45933;51.336;12.612;2022-11-23T03:12:16;8.90;;;5.43;;
60060;SDS011;45933;51.336;12.612;2022-11-23T03:14:41;10.87;;;5.70;;
60060;SDS011;45933;51.336;12.612;2022-11-23T03:17:06;9.30;;;5.63;;
60060;SDS011;45933;51.336;12.612;2022-11-23T03:19:32;8.30;;;5.20;;
60060;SDS011;45933;51.336;12.612;2022-11-23T03:21:57;8.10;;;5.20;;
60060;SDS011;45933;51.336;12.612;2022-11-23T03:24:22;7.87;;;5.53;;
60060;SDS011;45933;51.336;12.612;2022-11-23T03:26:48;14.50;;;6.07;;
60060;SDS011;45933;51.336;12.612;2022-11-23T03:29:13;10.30;;;5.50;;
60060;SDS011;45933;51.336;12.612;2022-11-23T03:31:39;10.50;;;5.90;;
60060;SDS011;45933;51.336;12.612;2022-11-23T03:34:04;8.33;;;5.93;;
60060;SDS011;45933;51.336;12.612;2022-11-23T03:36:29;9.30;;;5.57;;
60060;SDS011;45933;51.336;12.612;2022-11-23T03:38:55;8.10;;;5.43;;
60060;SDS011;45933;51.336;12.612;2022-11-23T03:41:20;9.77;;;5.53;;
60060;SDS011;45933;51.336;12.612;2022-11-23T03:43:45;10.70;;;6.03;;
60060;SDS011;45933;51.336;12.612;2022-11-23T03:46:11;9.77;;;5.77;;
60060;SDS011;45933;51.336;12.612;2022-11-23T03:48:36;10.83;;;5.93;;
60060;SDS011;45933;51.336;12.612;2022-11-23T03:51:01;11.67;;;6.43;;
60060;SDS011;45933;51.336;12.612;2022-11-23T03:53:26;9.00;;;5.73;;
60060;SDS011;45933;51.336;12.612;2022-11-23T03:55:52;10.53;;;6.27;;
60060;SDS011;45933;51.336;12.612;2022-11-23T03:58:20;10.30;;;5.77;;
60060;SDS011;45933;51.336;12.612;2022-11-23T04:00:45;12.57;;;6.50;;
60060;SDS011;45933;51.336;12.612;2022-11-23T04:03:10;11.03;;;5.83;;
60060;SDS011;45933;51.336;12.612;2022-11-23T04:05:36;9.23;;;5.80;;
60060;SDS011;45933;51.336;12.612;2022-11-23T04:08:01;10.50;;;6.13;;
60060;SDS011;45933;51.336;12.612;2022-11-23T04:10:27;10.67;;;5.83;;
60060;SDS011;45933;51.336;12.612;2022-11-23T04:12:52;9.93;;;5.97;;
60060;SDS011;45933;51.336;12.612;2022-11-23T04:15:17;9.10;;;6.13;;
60060;SDS011;45933;51.336;12.612;2022-11-23T04:17:43;10.23;;;6.00;;
60060;SDS011;45933;51.336;12.612;2022-11-23T04:20:09;12.20;;;6.47;;
60060;SDS011;45933;51.336;12.612;2022-11-23T04:22:34;10.20;;;6.10;;
60060;SDS011;45933;51.336;12.612;2022-11-23T04:25:00;10.90;;;6.67;;
60060;SDS011;45933;51.336;12.612;2022-11-23T04:27:25;12.57;;;6.90;;
60060;SDS011;45933;51.336;12.612;2022-11-23T04:29:50;12.07;;;6.60;;
60060;SDS011;45933;51.336;12.612;2022-11-23T04:32:16;9.70;;;6.67;;
60060;SDS011;45933;51.336;12.612;2022-11-23T04:34:41;11.43;;;7.17;;
60060;SDS011;45933;51.336;12.612;2022-11-23T04:37:06;11.27;;;7.07;;
60060;SDS011;45933;51.336;12.612;2022-11-23T04:39:32;11.90;;;7.27;;
60060;SDS011;45933;51.336;12.612;2022-11-23T04:41:57;11.50;;;6.93;;
60060;SDS011;45933;51.336;12.612;2022-11-23T04:44:22;13.03;;;6.97;;
60060;SDS011;45933;51.336;12.612;2022-11-23T04:46:48;12.23;;;7.13;;
60060;SDS011;45933;51.336;12.612;2022-11-23T04:49:14;10.40;;;6.93;;
60060;SDS011;45933;51.336;12.612;2022-11-23T04:51:40;11.00;;;6.93;;
60060;SDS011;45933;51.336;12.612;2022-11-23T04:54:05;11.20;;;7.53;;
60060;SDS011;45933;51.336;12.612;2022-11-23T04:56:30;12.80;;;7.20;;
60060;SDS011;45933;51.336;12.612;2022-11-23T04:58:55;12.63;;;7.43;;
60060;SDS011;45933;51.336;12.612;2022-11-23T05:01:21;10.03;;;7.07;;
60060;SDS011;45933;51.336;12.612;2022-11-23T05:03:46;11.83;;;7.47;;
60060;SDS011;45933;51.336;12.612;2022-11-23T05:06:11;11.67;;;7.87;;
60060;SDS011;45933;51.336;12.612;2022-11-23T05:08:37;13.83;;;7.23;;
60060;SDS011;45933;51.336;12.612;2022-11-23T05:11:02;10.13;;;7.30;;
60060;SDS011;45933;51.336;12.612;2022-11-23T05:13:28;10.90;;;7.83;;
60060;SDS011;45933;51.336;12.612;2022-11-23T05:15:53;11.37;;;6.83;;
60060;SDS011;45933;51.336;12.612;2022-11-23T05:18:18;11.90;;;7.70;;
60060;SDS011;45933;51.336;12.612;2022-11-23T05:20:44;13.20;;;7.97;;
60060;SDS011;45933;51.336;12.612;2022-11-23T05:23:10;16.70;;;7.07;;
60060;SDS011;45933;51.336;12.612;2022-11-23T05:25:35;13.87;;;8.20;;
60060;SDS011;45933;51.336;12.612;2022-11-23T05:28:01;12.83;;;7.83;;
60060;SDS011;45933;51.336;12.612;2022-11-23T05:30:26;12.50;;;8.00;;
60060;SDS011;45933;51.336;12.612;2022-11-23T05:32:51;13.80;;;8.50;;
60060;SDS011;45933;51.336;12.612;2022-11-23T05:35:17;13.83;;;7.37;;
60060;SDS011;45933;51.336;12.612;2022-11-23T05:37:42;21.97;;;13.00;;
60060;SDS011;45933;51.336;12.612;2022-11-23T05:40:08;16.40;;;10.10;;
60060;SDS011;45933;51.336;12.612;2022-11-23T05:42:35;22.20;;;12.20;;
60060;SDS011;45933;51.336;12.612;2022-11-23T05:45:00;16.93;;;9.33;;
60060;SDS011;45933;51.336;12.612;2022-11-23T05:47:25;12.00;;;7.73;;
60060;SDS011;45933;51.336;12.612;2022-11-23T05:49:51;13.20;;;7.20;;
60060;SDS011;45933;51.336;12.612;2022-11-23T05:52:16;13.00;;;7.87;;
60060;SDS011;45933;51.336;12.612;2022-11-23T05:54:42;14.20;;;7.73;;
60060;SDS011;45933;51.336;12.612;2022-11-23T05:57:07;11.13;;;7.10;;
60060;SDS011;45933;51.336;12.612;2022-11-23T05:59:32;12.60;;;7.63;;
60060;SDS011;45933;51.336;12.612;2022-11-23T06:01:58;14.83;;;8.00;;
60060;SDS011;45933;51.336;12.612;2022-11-23T06:04:23;14.43;;;7.80;;
60060;SDS011;45933;51.336;12.612;2022-11-23T06:06:48;18.17;;;8.93;;
60060;SDS011;45933;51.336;12.612;2022-11-23T06:09:14;12.93;;;7.00;;
60060;SDS011;45933;51.336;12.612;2022-11-23T06:11:39;13.37;;;7.73;;
60060;SDS011;45933;51.336;12.612;2022-11-23T06:14:04;12.77;;;8.20;;
60060;SDS011;45933;51.336;12.612;2022-11-23T06:16:30;13.77;;;8.60;;
60060;SDS011;45933;51.336;12.612;2022-11-23T06:18:56;13.17;;;8.37;;
60060;SDS011;45933;51.336;12.612;2022-11-23T06:21:21;11.13;;;7.67;;
60060;SDS011;45933;51.336;12.612;2022-11-23T06:23:47;12.77;;;7.93;;
60060;SDS011;45933;51.336;12.612;2022-11-23T06:26:13;15.23;;;8.47;;
60060;SDS011;45933;51.336;12.612;2022-11-23T06:28:41;13.60;;;8.13;;
60060;SDS011;45933;51.336;12.612;2022-11-23T06:31:06;12.63;;;8.27;;
60060;SDS011;45933;51.336;12.612;2022-11-23T06:33:32;15.20;;;8.23;;
60060;SDS011;45933;51.336;12.612;2022-11-23T06:36:00;15.30;;;8.23;;
60060;SDS011;45933;51.336;12.612;2022-11-23T06:38:26;13.30;;;8.00;;
60060;SDS011;45933;51.336;12.612;2022-11-23T06:40:52;13.50;;;8.27;;
60060;SDS011;45933;51.336;12.612;2022-11-23T06:43:21;15.50;;;7.90;;
60060;SDS011;45933;51.336;12.612;2022-11-23T06:45:47;17.87;;;11.20;;
60060;SDS011;45933;51.336;12.612;2022-11-23T06:48:12;13.90;;;8.47;;
60060;SDS011;45933;51.336;12.612;2022-11-23T06:50:38;12.43;;;7.70;;
60060;SDS011;45933;51.336;12.612;2022-11-23T06:53:03;14.90;;;9.50;;
60060;SDS011;45933;51.336;12.612;2022-11-23T06:55:28;14.43;;;8.87;;
60060;SDS011;45933;51.336;12.612;2022-11-23T06:57:55;14.93;;;9.37;;
60060;SDS011;45933;51.336;12.612;2022-11-23T07:00:20;10.83;;;7.50;;
60060;SDS011;45933;51.336;12.612;2022-11-23T07:02:52;14.20;;;8.50;;
60060;SDS011;45933;51.336;12.612;2022-11-23T07:05:19;12.63;;;6.87;;
60060;SDS011;45933;51.336;12.612;2022-11-23T07:07:45;12.33;;;6.73;;
60060;SDS011;45933;51.336;12.612;2022-11-23T07:10:10;16.40;;;9.17;;
60060;SDS011;45933;51.336;12.612;2022-11-23T07:12:36;15.23;;;9.87;;
60060;SDS011;45933;51.336;12.612;2022-11-23T07:15:01;14.20;;;8.53;;
60060;SDS011;45933;51.336;12.612;2022-11-23T07:17:27;13.30;;;7.70;;
60060;SDS011;45933;51.336;12.612;2022-11-23T07:19:52;11.40;;;7.27;;
60060;SDS011;45933;51.336;12.612;2022-11-23T07:22:17;10.53;;;7.07;;
60060;SDS011;45933;51.336;12.612;2022-11-23T07:24:43;13.13;;;7.23;;
60060;SDS011;45933;51.336;12.612;2022-11-23T07:27:08;9.93;;;6.90;;
60060;SDS011;45933;51.336;12.612;2022-11-23T07:29:33;12.60;;;7.17;;
60060;SDS011;45933;51.336;12.612;2022-11-23T07:31:59;10.93;;;6.60;;
60060;SDS011;45933;51.336;12.612;2022-11-23T07:34:24;12.63;;;6.63;;
60060;SDS011;45933;51.336;12.612;2022-11-23T07:36:51;10.27;;;6.80;;
60060;SDS011;45933;51.336;12.612;2022-11-23T07:39:16;11.57;;;7.23;;
60060;SDS011;45933;51.336;12.612;2022-11-23T07:41:42;12.60;;;6.80;;
60060;SDS011;45933;51.336;12.612;2022-11-23T07:44:07;12.40;;;7.33;;
60060;SDS011;45933;51.336;12.612;2022-11-23T07:46:32;12.33;;;7.63;;
60060;SDS011;45933;51.336;12.612;2022-11-23T07:48:58;10.57;;;7.80;;
60060;SDS011;45933;51.336;12.612;2022-11-23T07:51:26;12.20;;;7.97;;
60060;SDS011;45933;51.336;12.612;2022-11-23T07:53:52;13.00;;;7.87;;
60060;SDS011;45933;51.336;12.612;2022-11-23T07:56:17;11.07;;;7.60;;
60060;SDS011;45933;51.336;12.612;2022-11-23T07:58:42;11.80;;;7.83;;
60060;SDS011;45933;51.336;12.612;2022-11-23T08:01:08;12.97;;;7.80;;
60060;SDS011;45933;51.336;12.612;2022-11-23T08:03:33;10.40;;;7.50;;
60060;SDS011;45933;51.336;12.612;2022-11-23T08:05:59;11.13;;;7.20;;
60060;SDS011;45933;51.336;12.612;2022-11-23T08:08:24;11.00;;;6.87;;
60060;SDS011;45933;51.336;12.612;2022-11-23T08:10:49;9.13;;;6.37;;
60060;SDS011;45933;51.336;12.612;2022-11-23T08:13:15;10.13;;;6.70;;
60060;SDS011;45933;51.336;12.612;2022-11-23T08:15:40;8.93;;;6.90;;
60060;SDS011;45933;51.336;12.612;2022-11-23T08:18:05;14.60;;;7.07;;
60060;SDS011;45933;51.336;12.612;2022-11-23T08:20:31;12.13;;;6.80;;
60060;SDS011;45933;51.336;12.612;2022-11-23T08:22:57;10.67;;;7.17;;
60060;SDS011;45933;51.336;12.612;2022-11-23T08:25:23;12.23;;;6.87;;
60060;SDS011;45933;51.336;12.612;2022-11-23T08:27:54;11.13;;;7.13;;
60060;SDS011;45933;51.336;12.612;2022-11-23T08:30:20;11.53;;;6.97;;
60060;SDS011;45933;51.336;12.612;2022-11-23T08:32:45;10.70;;;6.83;;
60060;SDS011;45933;51.336;12.612;2022-11-23T08:35:10;9.83;;;6.63;;
60060;SDS011;45933;51.336;12.612;2022-11-23T08:37:36;9.83;;;6.53;;
60060;SDS011;45933;51.336;12.612;2022-11-23T08:40:01;10.57;;;7.07;;
60060;SDS011;45933;51.336;12.612;2022-11-23T08:42:27;12.00;;;6.60;;
60060;SDS011;45933;51.336;12.612;2022-11-23T08:44:52;9.73;;;6.17;;
60060;SDS011;45933;51.336;12.612;2022-11-23T08:47:17;11.83;;;7.03;;
60060;SDS011;45933;51.336;12.612;2022-11-23T08:49:43;10.70;;;5.93;;
60060;SDS011;45933;51.336;12.612;2022-11-23T08:52:08;10.37;;;6.00;;
60060;SDS011;45933;51.336;12.612;2022-11-23T08:54:34;9.90;;;6.10;;
60060;SDS011;45933;51.336;12.612;2022-11-23T08:56:59;12.37;;;5.87;;
60060;SDS011;45933;51.336;12.612;2022-11-23T08:59:24;10.13;;;6.00;;
60060;SDS011;45933;51.336;12.612;2022-11-23T09:01:50;9.73;;;5.73;;
60060;SDS011;45933;51.336;12.612;2022-11-23T09:04:15;11.93;;;5.63;;
60060;SDS011;45933;51.336;12.612;2022-11-23T09:06:41;10.73;;;6.30;;
60060;SDS011;45933;51.336;12.612;2022-11-23T09:09:07;10.33;;;6.10;;
60060;SDS011;45933;51.336;12.612;2022-11-23T09:11:32;8.77;;;5.60;;
60060;SDS011;45933;51.336;12.612;2022-11-23T09:13:57;7.73;;;5.37;;
60060;SDS011;45933;51.336;12.612;2022-11-23T09:16:23;9.90;;;5.88;;
60060;SDS011;45933;51.336;12.612;2022-11-23T09:18:48;11.23;;;6.20;;
60060;SDS011;45933;51.336;12.612;2022-11-23T09:21:14;10.93;;;5.88;;
60060;SDS011;45933;51.336;12.612;2022-11-23T09:23:39;11.48;;;6.18;;
60060;SDS011;45933;51.336;12.612;2022-11-23T09:26:05;12.07;;;6.10;;
60060;SDS011;45933;51.336;12.612;2022-11-23T09:28:31;12.10;;;6.90;;
60060;SDS011;45933;51.336;12.612;2022-11-23T09:30:56;10.82;;;6.03;;
60060;SDS011;45933;51.336;12.612;2022-11-23T09:33:22;8.60;;;5.20;;
60060;SDS011;45933;51.336;12.612;2022-11-23T09:35:58;8.32;;;4.40;;
60060;SDS011;45933;51.336;12.612;2022-11-23T09:38:24;7.20;;;4.30;;
60060;SDS011;45933;51.336;12.612;2022-11-23T09:40:52;6.72;;;4.47;;
60060;SDS011;45933;51.336;12.612;2022-11-23T09:43:51;5.18;;;4.20;;
60060;SDS011;45933;51.336;12.612;2022-11-23T09:46:35;9.45;;;4.60;;
60060;SDS011;45933;51.336;12.612;2022-11-23T09:51:36;7.45;;;4.70;;
60060;SDS011;45933;51.336;12.612;2022-11-23T09:54:24;7.78;;;4.93;;
60060;SDS011;45933;51.336;12.612;2022-11-23T09:56:51;5.85;;;3.92;;
60060;SDS011;45933;51.336;12.612;2022-11-23T09:59:24;6.03;;;4.00;;
60060;SDS011;45933;51.336;12.612;2022-11-23T10:01:59;6.65;;;4.35;;
60060;SDS011;45933;51.336;12.612;2022-11-23T10:04:25;9.20;;;5.43;;
60060;SDS011;45933;51.336;12.612;2022-11-23T10:06:57;9.25;;;5.38;;
60060;SDS011;45933;51.336;12.612;2022-11-23T10:15:11;8.30;;;5.90;;
60060;SDS011;45933;51.336;12.612;2022-11-23T10:18:01;6.53;;;4.70;;
60060;SDS011;45933;51.336;12.612;2022-11-23T10:20:58;7.93;;;4.68;;
60060;SDS011;45933;51.336;12.612;2022-11-23T10:24:03;5.85;;;3.83;;
60060;SDS011;45933;51.336;12.612;2022-11-23T10:26:39;6.63;;;4.35;;
60060;SDS011;45933;51.336;12.612;2022-11-23T10:29:13;8.65;;;4.40;;
60060;SDS011;45933;51.336;12.612;2022-11-23T10:31:42;8.73;;;4.60;;
60060;SDS011;45933;51.336;12.612;2022-11-23T10:34:22;6.57;;;4.47;;
60060;SDS011;45933;51.336;12.612;2022-11-23T10:36:50;7.78;;;4.05;;
60060;SDS011;45933;51.336;12.612;2022-11-23T10:39:20;5.55;;;3.72;;
60060;SDS011;45933;51.336;12.612;2022-11-23T10:41:48;7.13;;;4.53;;
60060;SDS011;45933;51.336;12.612;2022-11-23T10:46:57;6.35;;;4.40;;
60060;SDS011;45933;51.336;12.612;2022-11-23T10:49:24;6.47;;;4.03;;
60060;SDS011;45933;51.336;12.612;2022-11-23T10:51:56;8.05;;;4.18;;
60060;SDS011;45933;51.336;12.612;2022-11-23T10:54:28;6.95;;;4.70;;
60060;SDS011;45933;51.336;12.612;2022-11-23T10:56:57;5.63;;;3.45;;
60060;SDS011;45933;51.336;12.612;2022-11-23T10:59:25;7.22;;;4.57;;
60060;SDS011;45933;51.336;12.612;2022-11-23T11:02:07;6.65;;;4.00;;
60060;SDS011;45933;51.336;12.612;2022-11-23T11:04:39;6.13;;;4.15;;
60060;SDS011;45933;51.336;12.612;2022-11-23T11:07:09;7.07;;;4.35;;
60060;SDS011;45933;51.336;12.612;2022-11-23T11:09:57;7.03;;;4.25;;
60060;SDS011;45933;51.336;12.612;2022-11-23T11:12:25;7.65;;;4.47;;
60060;SDS011;45933;51.336;12.612;2022-11-23T11:14:56;6.55;;;3.97;;
60060;SDS011;45933;51.336;12.612;2022-11-23T11:17:27;5.63;;;4.22;;
60060;SDS011;45933;51.336;12.612;2022-11-23T11:19:57;7.95;;;4.53;;
60060;SDS011;45933;51.336;12.612;2022-11-23T11:22:33;8.60;;;5.20;;
60060;SDS011;45933;51.336;12.612;2022-11-23T11:25:03;6.68;;;4.03;;
60060;SDS011;45933;51.336;12.612;2022-11-23T11:27:30;7.78;;;3.63;;
60060;SDS011;45933;51.336;12.612;2022-11-23T11:30:00;6.25;;;3.55;;
60060;SDS011;45933;51.336;12.612;2022-11-23T11:35:18;8.60;;;4.05;;
60060;SDS011;45933;51.336;12.612;2022-11-23T11:37:49;5.78;;;3.85;;
60060;SDS011;45933;51.336;12.612;2022-11-23T11:40:20;7.70;;;4.45;;
60060;SDS011;45933;51.336;12.612;2022-11-23T11:43:17;5.50;;;3.63;;
60060;SDS011;45933;51.336;12.612;2022-11-23T11:45:47;7.75;;;4.68;;
60060;SDS011;45933;51.336;12.612;2022-11-23T11:48:21;7.85;;;3.97;;
60060;SDS011;45933;51.336;12.612;2022-11-23T11:53:32;6.57;;;3.55;;
60060;SDS011;45933;51.336;12.612;2022-11-23T11:56:21;6.38;;;4.43;;
60060;SDS011;45933;51.336;12.612;2022-11-23T11:59:36;6.97;;;4.28;;
60060;SDS011;45933;51.336;12.612;2022-11-23T12:04:16;6.35;;;4.00;;
60060;SDS011;45933;51.336;12.612;2022-11-23T12:07:11;7.97;;;4.57;;
60060;SDS011;45933;51.336;12.612;2022-11-23T12:09:42;5.88;;;3.67;;
60060;SDS011;45933;51.336;12.612;2022-11-23T12:12:15;6.28;;;4.05;;
60060;SDS011;45933;51.336;12.612;2022-11-23T12:14:42;8.25;;;5.00;;
60060;SDS011;45933;51.336;12.612;2022-11-23T12:17:30;10.50;;;6.90;;
60060;SDS011;45933;51.336;12.612;2022-11-23T12:25:23;8.57;;;5.47;;
60060;SDS011;45933;51.336;12.612;2022-11-23T12:31:05;6.72;;;4.38;;
60060;SDS011;45933;51.336;12.612;2022-11-23T12:33:48;6.80;;;3.70;;
60060;SDS011;45933;51.336;12.612;2022-11-23T12:39:16;6.40;;;4.10;;
60060;SDS011;45933;51.336;12.612;2022-11-23T12:47:51;7.45;;;4.47;;
60060;SDS011;45933;51.336;12.612;2022-11-23T12:50:30;6.38;;;4.15;;
60060;SDS011;45933;51.336;12.612;2022-11-23T12:58:46;7.90;;;6.10;;
60060;SDS011;45933;51.336;12.612;2022-11-23T13:12:04;6.88;;;3.72;;
60060;SDS011;45933;51.336;12.612;2022-11-23T13:14:43;11.35;;;6.55;;
60060;SDS011;45933;51.336;12.612;2022-11-23T13:20:08;6.60;;;3.33;;
60060;SDS011;45933;51.336;12.612;2022-11-23T13:22:57;6.78;;;3.45;;
60060;SDS011;45933;51.336;12.612;2022-11-23T13:32:53;7.30;;;4.13;;
60060;SDS011;45933;51.336;12.612;2022-11-23T13:40:42;8.30;;;3.97;;
60060;SDS011;45933;51.336;12.612;2022-11-23T13:43:18;6.38;;;3.63;;
60060;SDS011;45933;51.336;12.612;2022-11-23T13:48:51;16.75;;;10.02;;
60060;SDS011;45933;51.336;12.612;2022-11-23T13:51:21;18.10;;;8.07;;
60060;SDS011;45933;51.336;12.612;2022-11-23T13:53:56;18.00;;;9.07;;
60060;SDS011;45933;51.336;12.612;2022-11-23T13:56:30;10.07;;;5.63;;
60060;SDS011;45933;51.336;12.612;2022-11-23T14:04:27;9.07;;;6.68;;
60060;SDS011;45933;51.336;12.612;2022-11-23T14:09:38;28.50;;;16.70;;
60060;SDS011;45933;51.336;12.612;2022-11-23T14:14:49;13.52;;;8.00;;
60060;SDS011;45933;51.336;12.612;2022-11-23T14:25:53;9.75;;;4.82;;
60060;SDS011;45933;51.336;12.612;2022-11-23T14:28:43;12.20;;;7.82;;
60060;SDS011;45933;51.336;12.612;2022-11-23T14:34:03;12.30;;;7.07;;
60060;SDS011;45933;51.336;12.612;2022-11-23T14:42:12;31.83;;;16.45;;
60060;SDS011;45933;51.336;12.612;2022-11-23T14:44:41;22.30;;;12.33;;
60060;SDS011;45933;51.336;12.612;2022-11-23T14:47:08;22.00;;;10.70;;
60060;SDS011;45933;51.336;12.612;2022-11-23T14:49:35;17.43;;;8.43;;
60060;SDS011;45933;51.336;12.612;2022-11-23T14:52:02;16.67;;;9.13;;
60060;SDS011;45933;51.336;12.612;2022-11-23T14:54:29;13.57;;;6.70;;
60060;SDS011;45933;51.336;12.612;2022-11-23T14:56:56;9.03;;;5.27;;
60060;SDS011;45933;51.336;12.612;2022-11-23T14:59:26;8.17;;;4.30;;
60060;SDS011;45933;51.336;12.612;2022-11-23T15:04:25;8.27;;;5.37;;
60060;SDS011;45933;51.336;12.612;2022-11-23T15:07:12;7.43;;;4.23;;
60060;SDS011;45933;51.336;12.612;2022-11-23T15:09:49;7.37;;;3.60;;
60060;SDS011;45933;51.336;12.612;2022-11-23T15:12:42;10.40;;;3.90;;
60060;SDS011;45933;51.336;12.612;2022-11-23T15:15:15;14.37;;;5.87;;
60060;SDS011;45933;51.336;12.612;2022-11-23T15:17:52;9.50;;;6.30;;
60060;SDS011;45933;51.336;12.612;2022-11-23T15:20:19;8.93;;;4.83;;
60060;SDS011;45933;51.336;12.612;2022-11-23T15:22:44;6.37;;;4.07;;
60060;SDS011;45933;51.336;12.612;2022-11-23T15:25:12;7.27;;;3.50;;
60060;SDS011;45933;51.336;12.612;2022-11-23T15:27:40;7.33;;;3.47;;
60060;SDS011;45933;51.336;12.612;2022-11-23T15:30:16;5.93;;;3.60;;
60060;SDS011;45933;51.336;12.612;2022-11-23T15:32:53;8.87;;;5.00;;
60060;SDS011;45933;51.336;12.612;2022-11-23T15:35:23;10.10;;;5.13;;
60060;SDS011;45933;51.336;12.612;2022-11-23T15:37:56;8.17;;;4.23;;
60060;SDS011;45933;51.336;12.612;2022-11-23T15:40:23;9.13;;;3.40;;
60060;SDS011;45933;51.336;12.612;2022-11-23T15:42:53;10.93;;;4.30;;
60060;SDS011;45933;51.336;12.612;2022-11-23T15:45:34;11.13;;;3.70;;
60060;SDS011;45933;51.336;12.612;2022-11-23T15:48:09;13.17;;;3.80;;
60060;SDS011;45933;51.336;12.612;2022-11-23T15:50:45;13.67;;;3.73;;
60060;SDS011;45933;51.336;12.612;2022-11-23T15:53:28;8.00;;;3.30;;
60060;SDS011;45933;51.336;12.612;2022-11-23T15:56:01;10.93;;;3.63;;
60060;SDS011;45933;51.336;12.612;2022-11-23T15:58:29;9.03;;;3.43;;
60060;SDS011;45933;51.336;12.612;2022-11-23T16:01:00;5.80;;;3.60;;
60060;SDS011;45933;51.336;12.612;2022-11-23T16:03:34;6.77;;;3.67;;
60060;SDS011;45933;51.336;12.612;2022-11-23T16:06:46;4.50;;;3.17;;
60060;SDS011;45933;51.336;12.612;2022-11-23T16:09:05;8.47;;;3.63;;
60060;SDS011;45933;51.336;12.612;2022-11-23T16:17:57;5.03;;;2.97;;
60060;SDS011;45933;51.336;12.612;2022-11-23T16:20:23;5.93;;;3.33;;
60060;SDS011;45933;51.336;12.612;2022-11-23T16:22:49;12.27;;;4.23;;
60060;SDS011;45933;51.336;12.612;2022-11-23T16:27:57;6.73;;;3.70;;
60060;SDS011;45933;51.336;12.612;2022-11-23T16:30:49;4.87;;;3.20;;